createdAt,value
2023-03-03T00:00:03.295Z,23.04
2023-03-03T00:01:14.080Z,22.67
2023-03-03T00:02:16.188Z,22.96
2023-03-03T00:03:21.285Z,22.77
2023-03-03T00:04:23.304Z,22.91
2023-03-03T00:05:25.184Z,23.05
2023-03-03T00:06:27.235Z,23.14
2023-03-03T00:07:29.069Z,22.99
2023-03-03T00:08:32.564Z,22.51
2023-03-03T00:09:34.403Z,23.03
2023-03-03T00:10:36.466Z,22.99
2023-03-03T00:11:38.476Z,22.87
2023-03-03T00:12:51.025Z,22.85
2023-03-03T00:13:55.586Z,22.69
2023-03-03T00:14:58.083Z,22.92
2023-03-03T00:16:15.353Z,22.90
2023-03-03T00:17:28.639Z,22.91
2023-03-03T00:18:38.210Z,23.09
2023-03-03T00:19:41.364Z,22.92
2023-03-03T00:20:49.526Z,22.80
2023-03-03T00:21:52.928Z,23.16
2023-03-03T00:22:54.792Z,22.58
2023-03-03T00:24:05.392Z,22.85
2023-03-03T00:25:19.832Z,23.10
2023-03-03T00:26:36.684Z,22.81
2023-03-03T00:27:38.504Z,23.09
2023-03-03T00:28:47.333Z,22.93
2023-03-03T00:30:00.359Z,23.33
2023-03-03T00:31:12.761Z,23.29
2023-03-03T00:32:47.284Z,23.19
2023-03-03T00:33:54.973Z,22.76
2023-03-03T00:35:08.770Z,22.88
2023-03-03T00:36:28.850Z,22.91
2023-03-03T00:37:35.422Z,23.15
2023-03-03T00:38:37.302Z,23.03
2023-03-03T00:39:39.454Z,22.86
2023-03-03T00:40:41.810Z,22.99
2023-03-03T00:41:43.668Z,22.99
2023-03-03T00:42:54.795Z,23.28
2023-03-03T00:43:58.067Z,23.06
2023-03-03T00:45:01.130Z,23.32
2023-03-03T00:46:03.394Z,22.98
2023-03-03T00:47:23.533Z,23.21
2023-03-03T00:48:42.354Z,22.90
2023-03-03T00:49:44.293Z,22.88
2023-03-03T00:50:46.151Z,23.07
2023-03-03T00:51:47.926Z,23.16
2023-03-03T00:53:03.331Z,22.96
2023-03-03T00:54:05.427Z,23.15
2023-03-03T00:55:08.509Z,23.14
2023-03-03T00:56:10.557Z,23.08
2023-03-03T00:57:15.494Z,23.18
2023-03-03T00:58:21.736Z,23.06
2023-03-03T00:59:24.019Z,23.24
2023-03-03T01:00:26.009Z,22.99
2023-03-03T01:01:28.139Z,23.20
2023-03-03T01:02:31.178Z,23.32
2023-03-03T01:03:33.151Z,22.98
2023-03-03T01:04:35.254Z,23.10
2023-03-03T01:05:37.248Z,23.06
2023-03-03T01:06:39.323Z,23.13
2023-03-03T01:07:41.170Z,23.17
2023-03-03T01:08:43.075Z,23.08
2023-03-03T01:09:45.568Z,23.31
2023-03-03T01:10:53.643Z,23.31
2023-03-03T01:11:56.242Z,23.40
2023-03-03T01:12:58.492Z,23.03
2023-03-03T01:14:00.420Z,22.93
2023-03-03T01:15:02.949Z,23.04
2023-03-03T01:16:05.624Z,23.21
2023-03-03T01:17:07.724Z,23.13
2023-03-03T01:18:11.646Z,23.26
2023-03-03T01:19:13.446Z,23.09
2023-03-03T01:20:15.927Z,23.13
2023-03-03T01:21:17.768Z,23.25
2023-03-03T01:22:19.550Z,23.34
2023-03-03T01:23:21.476Z,23.18
2023-03-03T01:24:23.400Z,23.27
2023-03-03T01:25:25.230Z,22.85
2023-03-03T01:26:27.105Z,23.05
2023-03-03T01:27:29.308Z,23.03
2023-03-03T01:28:33.030Z,23.00
2023-03-03T01:29:34.859Z,23.14
2023-03-03T01:30:36.835Z,23.00
2023-03-03T01:31:38.760Z,22.91
2023-03-03T01:32:40.600Z,23.16
2023-03-03T01:33:42.454Z,23.13
2023-03-03T01:34:44.345Z,23.21
2023-03-03T01:35:47.542Z,22.74
2023-03-03T01:36:49.362Z,23.18
2023-03-03T01:37:51.197Z,22.92
2023-03-03T01:38:53.075Z,23.14
2023-03-03T01:39:55.734Z,23.12
2023-03-03T01:40:59.795Z,23.19
2023-03-03T01:42:03.747Z,22.95
2023-03-03T01:43:06.501Z,22.98
2023-03-03T01:44:14.696Z,23.00
2023-03-03T01:45:18.501Z,23.25
2023-03-03T01:46:49.097Z,22.97
2023-03-03T01:48:04.756Z,23.48
2023-03-03T01:49:38.273Z,23.09
2023-03-03T01:50:52.453Z,22.91
2023-03-03T01:51:58.882Z,22.83
2023-03-03T01:53:04.886Z,23.00
2023-03-03T01:54:14.723Z,23.10
2023-03-03T01:55:22.600Z,23.22
2023-03-03T01:56:25.829Z,22.86
2023-03-03T01:57:33.324Z,23.18
2023-03-03T01:58:40.048Z,23.01
2023-03-03T01:59:48.814Z,23.19
2023-03-03T02:00:55.325Z,22.95
2023-03-03T02:01:57.288Z,22.97
2023-03-03T02:02:59.340Z,23.07
2023-03-03T02:04:01.688Z,23.20
2023-03-03T02:05:03.845Z,22.99
2023-03-03T02:06:09.784Z,23.14
2023-03-03T02:07:15.197Z,23.08
2023-03-03T02:08:21.969Z,23.06
2023-03-03T02:09:29.827Z,23.25
2023-03-03T02:10:31.900Z,23.01
2023-03-03T02:11:37.492Z,23.01
2023-03-03T02:12:41.843Z,22.99
2023-03-03T02:13:43.654Z,22.96
2023-03-03T02:14:45.721Z,22.99
2023-03-03T02:15:47.608Z,23.21
2023-03-03T02:16:49.890Z,23.41
2023-03-03T02:17:57.633Z,23.32
2023-03-03T02:18:59.642Z,23.01
2023-03-03T02:20:19.230Z,23.21
2023-03-03T02:21:24.072Z,23.14
2023-03-03T02:22:41.117Z,23.15
2023-03-03T02:24:01.058Z,23.36
2023-03-03T02:25:08.578Z,23.09
2023-03-03T02:26:13.846Z,22.99
2023-03-03T02:27:15.700Z,22.57
2023-03-03T02:28:19.078Z,23.09
2023-03-03T02:29:21.056Z,23.39
2023-03-03T02:30:24.294Z,23.31
2023-03-03T02:31:28.986Z,23.07
2023-03-03T02:32:30.838Z,23.11
2023-03-03T02:33:32.698Z,22.99
2023-03-03T02:34:53.438Z,22.93
2023-03-03T02:35:55.677Z,22.96
2023-03-03T02:36:57.527Z,23.08
2023-03-03T02:38:21.088Z,22.95
2023-03-03T02:39:26.624Z,23.16
2023-03-03T02:40:34.398Z,22.78
2023-03-03T02:41:42.312Z,22.87
2023-03-03T02:42:46.816Z,22.92
2023-03-03T02:43:59.887Z,22.86
2023-03-03T02:45:01.976Z,23.07
2023-03-03T02:46:04.577Z,23.13
2023-03-03T02:47:06.411Z,23.11
2023-03-03T02:48:08.538Z,22.94
2023-03-03T02:49:13.444Z,23.20
2023-03-03T02:50:16.431Z,23.18
2023-03-03T02:51:18.416Z,23.18
2023-03-03T02:52:20.387Z,23.26
2023-03-03T02:53:24.522Z,23.04
2023-03-03T03:10:48.562Z,22.52
2023-03-03T03:11:51.066Z,22.85
2023-03-03T03:12:55.898Z,22.91
2023-03-03T03:13:57.921Z,22.74
2023-03-03T03:15:00.029Z,23.41
2023-03-03T03:16:02.488Z,23.49
2023-03-03T03:17:04.983Z,23.12
2023-03-03T03:18:07.782Z,23.43
2023-03-03T03:19:09.804Z,23.19
2023-03-03T03:20:13.035Z,23.49
2023-03-03T03:21:14.988Z,23.26
2023-03-03T03:22:17.633Z,23.45
2023-03-03T03:23:21.968Z,23.47
2023-03-03T03:24:23.964Z,23.50
2023-03-03T03:25:33.564Z,23.22
2023-03-03T03:26:35.463Z,23.42
2023-03-03T03:27:38.037Z,23.47
2023-03-03T03:28:40.453Z,23.57
2023-03-03T03:29:42.574Z,23.38
2023-03-03T03:30:45.820Z,23.56
2023-03-03T03:31:47.924Z,23.22
2023-03-03T03:32:50.157Z,23.58
2023-03-03T03:33:53.036Z,23.28
2023-03-03T03:34:56.573Z,23.43
2023-03-03T03:35:59.133Z,23.15
2023-03-03T03:37:00.966Z,23.52
2023-03-03T03:38:04.098Z,23.07
2023-03-03T03:39:06.831Z,23.41
2023-03-03T03:40:12.224Z,23.12
2023-03-03T03:41:14.192Z,23.07
2023-03-03T03:42:16.232Z,23.36
2023-03-03T03:43:18.033Z,23.33
2023-03-03T03:44:20.121Z,23.10
2023-03-03T03:45:22.252Z,23.16
2023-03-03T03:46:24.196Z,22.90
2023-03-03T03:47:26.146Z,23.31
2023-03-03T03:48:28.115Z,23.29
2023-03-03T03:49:30.822Z,23.30
2023-03-03T03:50:33.705Z,23.27
2023-03-03T03:51:38.277Z,23.32
2023-03-03T03:52:40.731Z,23.16
2023-03-03T03:53:42.609Z,23.05
2023-03-03T03:54:44.603Z,23.11
2023-03-03T03:55:47.329Z,23.04
2023-03-03T03:56:49.996Z,23.27
2023-03-03T03:57:51.943Z,23.31
2023-03-03T03:58:53.874Z,23.32
2023-03-03T03:59:55.780Z,23.00
2023-03-03T04:01:06.259Z,22.94
2023-03-03T04:02:10.694Z,23.19
2023-03-03T04:03:14.830Z,23.17
2023-03-03T04:04:18.409Z,23.04
2023-03-03T04:05:20.382Z,23.23
2023-03-03T04:06:22.767Z,23.25
2023-03-03T04:07:25.252Z,22.98
2023-03-03T04:08:27.203Z,23.56
2023-03-03T04:09:29.345Z,22.98
2023-03-03T04:10:31.239Z,23.05
2023-03-03T04:11:33.520Z,23.24
2023-03-03T04:12:38.611Z,23.20
2023-03-03T04:13:44.212Z,23.11
2023-03-03T04:14:47.085Z,22.91
2023-03-03T04:15:49.042Z,23.14
2023-03-03T04:16:51.271Z,23.12
2023-03-03T04:17:53.146Z,23.05
2023-03-03T04:18:55.643Z,23.48
2023-03-03T04:19:57.487Z,23.18
2023-03-03T04:20:59.828Z,23.19
2023-03-03T04:22:02.570Z,22.84
2023-03-03T04:23:05.412Z,23.11
2023-03-03T04:24:07.792Z,22.93
2023-03-03T04:25:14.437Z,23.12
2023-03-03T04:26:17.339Z,23.13
2023-03-03T04:27:19.880Z,23.14
2023-03-03T04:28:22.349Z,23.10
2023-03-03T04:29:25.046Z,23.07
2023-03-03T04:30:27.113Z,23.23
2023-03-03T04:31:31.523Z,23.09
2023-03-03T04:32:34.074Z,23.20
2023-03-03T04:33:38.027Z,23.18
2023-03-03T04:34:40.856Z,23.02
2023-03-03T04:35:42.663Z,23.16
2023-03-03T04:36:44.668Z,23.24
2023-03-03T04:37:46.561Z,23.24
2023-03-03T04:38:49.257Z,23.00
2023-03-03T04:39:51.173Z,23.12
2023-03-03T04:40:53.166Z,23.07
2023-03-03T04:41:55.333Z,22.97
2023-03-03T04:42:57.362Z,23.06
2023-03-03T04:43:59.630Z,23.36
2023-03-03T04:45:02.254Z,23.23
2023-03-03T04:46:04.754Z,23.21
2023-03-03T04:47:07.091Z,23.33
2023-03-03T04:48:09.023Z,23.24
2023-03-03T04:49:12.630Z,23.19
2023-03-03T04:50:16.526Z,23.10
2023-03-03T04:51:18.745Z,23.26
2023-03-03T04:52:20.852Z,23.24
2023-03-03T04:53:23.123Z,23.20
2023-03-03T04:54:25.051Z,23.28
2023-03-03T04:55:27.079Z,23.30
2023-03-03T04:56:31.614Z,23.15
2023-03-03T04:57:33.422Z,23.33
2023-03-03T04:58:35.259Z,23.29
2023-03-03T04:59:37.359Z,23.07
2023-03-03T05:00:39.828Z,23.19
2023-03-03T05:01:43.007Z,22.97
2023-03-03T05:02:44.930Z,23.13
2023-03-03T05:03:48.104Z,23.03
2023-03-03T05:04:49.949Z,23.31
2023-03-03T05:05:51.809Z,23.10
2023-03-03T05:06:53.795Z,23.31
2023-03-03T05:07:55.652Z,23.38
2023-03-03T05:08:57.415Z,23.08
2023-03-03T05:09:59.324Z,23.28
2023-03-03T05:11:01.597Z,23.13
2023-03-03T05:12:03.556Z,23.33
2023-03-03T05:13:06.133Z,23.37
2023-03-03T05:14:08.437Z,23.20
2023-03-03T05:15:10.839Z,23.27
2023-03-03T05:16:12.804Z,23.05
2023-03-03T05:17:14.735Z,23.20
2023-03-03T05:18:17.013Z,23.46
2023-03-03T05:19:18.804Z,23.29
2023-03-03T05:20:20.698Z,23.46
2023-03-03T05:21:22.599Z,23.49
2023-03-03T05:22:24.746Z,23.37
2023-03-03T05:23:26.525Z,23.53
2023-03-03T05:24:28.583Z,23.17
2023-03-03T05:25:30.523Z,23.37
2023-03-03T05:26:32.526Z,23.27
2023-03-03T05:27:34.465Z,23.42
2023-03-03T05:28:36.294Z,23.50
2023-03-03T05:29:38.070Z,23.29
2023-03-03T05:30:40.423Z,23.18
2023-03-03T05:31:44.507Z,23.33
2023-03-03T05:32:47.317Z,23.44
2023-03-03T05:33:49.069Z,23.10
2023-03-03T05:34:52.567Z,23.41
2023-03-03T05:35:57.849Z,23.44
2023-03-03T05:36:59.717Z,23.60
2023-03-03T05:38:05.297Z,23.23
2023-03-03T05:39:07.425Z,23.28
2023-03-03T05:40:09.833Z,23.41
2023-03-03T05:41:11.624Z,23.54
2023-03-03T05:42:13.624Z,23.52
2023-03-03T05:43:15.532Z,23.60
2023-03-03T05:44:19.094Z,23.61
2023-03-03T05:45:24.519Z,23.25
2023-03-03T05:46:26.338Z,23.35
2023-03-03T05:47:28.144Z,23.67
2023-03-03T05:48:29.962Z,23.39
2023-03-03T05:49:31.973Z,23.55
2023-03-03T05:50:33.838Z,23.32
2023-03-03T05:51:35.641Z,23.27
2023-03-03T05:52:37.460Z,23.58
2023-03-03T05:53:39.474Z,23.34
2023-03-03T05:54:41.502Z,23.40
2023-03-03T05:55:43.292Z,23.45
2023-03-03T05:56:45.074Z,23.42
2023-03-03T05:57:47.088Z,23.72
2023-03-03T05:58:48.983Z,23.46
2023-03-03T05:59:50.816Z,23.68
2023-03-03T06:00:52.692Z,23.49
2023-03-03T06:01:54.517Z,23.45
2023-03-03T06:02:56.408Z,23.56
2023-03-03T06:03:58.262Z,23.67
2023-03-03T06:05:00.040Z,23.68
2023-03-03T06:06:01.874Z,23.39
2023-03-03T06:07:03.797Z,23.69
2023-03-03T06:08:05.791Z,23.60
2023-03-03T06:09:07.672Z,23.55
2023-03-03T06:10:10.072Z,23.63
2023-03-03T06:11:16.755Z,23.66
2023-03-03T06:12:19.166Z,23.67
2023-03-03T06:13:21.018Z,23.52
2023-03-03T06:14:24.769Z,23.41
2023-03-03T06:15:28.009Z,23.40
2023-03-03T06:16:29.996Z,23.35
2023-03-03T06:17:31.827Z,23.35
2023-03-03T06:18:33.634Z,23.39
2023-03-03T06:19:36.915Z,23.12
2023-03-03T06:20:38.900Z,23.18
2023-03-03T06:21:41.546Z,23.38
2023-03-03T06:22:43.528Z,23.39
2023-03-03T06:23:45.349Z,23.55
2023-03-03T06:24:47.331Z,23.31
2023-03-03T06:25:49.247Z,23.26
2023-03-03T06:26:52.062Z,22.85
2023-03-03T06:27:54.451Z,22.99
2023-03-03T06:28:56.262Z,22.99
2023-03-03T06:29:58.256Z,22.90
2023-03-03T06:31:00.118Z,23.06
2023-03-03T06:32:02.053Z,23.11
2023-03-03T06:33:03.918Z,22.97
2023-03-03T06:34:05.709Z,23.07
2023-03-03T06:35:07.933Z,22.75
2023-03-03T06:36:11.155Z,22.72
2023-03-03T06:37:13.074Z,22.60
2023-03-03T06:38:15.038Z,22.70
2023-03-03T06:39:16.836Z,22.90
2023-03-03T06:40:18.814Z,22.59
2023-03-03T06:41:20.795Z,22.84
2023-03-03T06:42:24.902Z,22.80
2023-03-03T06:43:26.790Z,22.85
2023-03-03T06:44:29.073Z,22.32
2023-03-03T06:45:31.115Z,22.33
2023-03-03T06:46:33.032Z,22.42
2023-03-03T06:47:35.114Z,22.53
2023-03-03T06:48:36.885Z,22.45
2023-03-03T06:49:38.724Z,21.99
2023-03-03T06:50:40.533Z,22.35
2023-03-03T06:51:43.986Z,22.41
2023-03-03T06:52:45.798Z,22.34
2023-03-03T06:53:50.197Z,22.16
2023-03-03T06:55:01.596Z,22.16
2023-03-03T06:56:09.801Z,22.47
2023-03-03T06:57:25.380Z,22.05
2023-03-03T06:58:31.355Z,22.09
2023-03-03T06:59:33.133Z,22.41
2023-03-03T07:00:35.000Z,22.34
2023-03-03T07:01:37.871Z,22.35
2023-03-03T07:02:40.255Z,22.15
2023-03-03T07:03:42.094Z,21.69
2023-03-03T07:04:45.587Z,22.10
2023-03-03T07:05:47.537Z,22.04
2023-03-03T07:06:49.324Z,22.14
2023-03-03T07:07:51.094Z,21.89
2023-03-03T07:08:53.229Z,22.06
2023-03-03T07:09:57.024Z,22.07
2023-03-03T07:11:06.577Z,22.19
2023-03-03T07:12:15.595Z,22.18
2023-03-03T07:13:28.787Z,22.40
2023-03-03T07:14:30.722Z,21.87
2023-03-03T07:15:36.342Z,21.92
2023-03-03T07:16:38.310Z,22.33
2023-03-03T07:17:45.712Z,22.05
2023-03-03T07:19:01.080Z,22.04
2023-03-03T07:20:15.404Z,22.04
2023-03-03T07:21:30.739Z,22.12
2023-03-03T07:22:33.128Z,22.00
2023-03-03T07:23:42.926Z,22.04
2023-03-03T07:24:52.892Z,21.94
2023-03-03T07:25:55.313Z,21.96
2023-03-03T07:27:05.739Z,22.27
2023-03-03T07:28:27.871Z,21.95
2023-03-03T07:29:30.765Z,21.89
2023-03-03T07:30:33.028Z,22.34
2023-03-03T07:31:37.756Z,22.31
2023-03-03T07:32:42.187Z,21.79
2023-03-03T07:33:47.273Z,22.19
2023-03-03T07:34:50.909Z,22.05
2023-03-03T07:35:55.134Z,21.94
2023-03-03T07:37:05.289Z,22.18
2023-03-03T07:38:29.122Z,21.96
2023-03-03T07:39:40.708Z,21.92
2023-03-03T07:40:50.531Z,21.76
2023-03-03T07:41:52.461Z,21.97
2023-03-03T07:42:54.233Z,21.96
2023-03-03T07:44:05.964Z,21.87
2023-03-03T07:45:25.089Z,22.00
2023-03-03T07:46:50.501Z,22.06
2023-03-03T07:47:52.380Z,21.89
2023-03-03T07:48:56.142Z,22.06
2023-03-03T07:50:01.123Z,22.06
2023-03-03T07:51:34.955Z,21.84
2023-03-03T07:52:42.360Z,22.07
2023-03-03T07:53:44.266Z,21.96
2023-03-03T07:54:47.409Z,21.73
2023-03-03T07:55:49.886Z,22.07
2023-03-03T07:56:52.282Z,21.86
2023-03-03T07:57:59.127Z,21.75
2023-03-03T07:59:13.094Z,21.93
2023-03-03T08:00:14.807Z,22.08
2023-03-03T08:01:39.954Z,22.12
2023-03-03T08:02:45.562Z,21.71
2023-03-03T08:03:51.064Z,21.97
2023-03-03T08:04:54.898Z,21.98
2023-03-03T08:05:56.732Z,21.89
2023-03-03T08:07:00.539Z,21.73
2023-03-03T08:08:32.365Z,22.04
2023-03-03T08:09:38.694Z,21.77
2023-03-03T08:10:49.089Z,22.13
2023-03-03T08:11:55.759Z,21.83
2023-03-03T08:13:01.499Z,22.13
2023-03-03T08:14:13.071Z,21.92
2023-03-03T08:15:22.989Z,21.65
2023-03-03T08:16:38.228Z,21.98
2023-03-03T08:17:42.694Z,21.76
2023-03-03T08:18:47.959Z,22.18
2023-03-03T08:19:51.606Z,21.84
2023-03-03T08:20:57.808Z,22.30
2023-03-03T08:22:09.670Z,22.15
2023-03-03T08:23:12.832Z,21.93
2023-03-03T08:24:14.614Z,21.84
2023-03-03T08:25:16.461Z,22.18
2023-03-03T08:26:19.252Z,22.20
2023-03-03T08:27:21.087Z,22.04
2023-03-03T08:28:23.518Z,21.82
2023-03-03T08:29:25.381Z,22.14
2023-03-03T08:30:27.431Z,22.23
2023-03-03T08:31:40.892Z,22.17
2023-03-03T08:32:43.806Z,22.12
2023-03-03T08:33:46.978Z,21.80
2023-03-03T08:34:48.827Z,22.06
2023-03-03T08:35:50.979Z,22.07
2023-03-03T08:36:52.940Z,22.02
2023-03-03T08:37:54.970Z,22.17
2023-03-03T08:38:56.867Z,21.80
2023-03-03T08:39:58.652Z,22.04
2023-03-03T08:41:01.113Z,22.18
2023-03-03T08:42:02.901Z,21.79
2023-03-03T08:43:05.645Z,22.37
2023-03-03T08:44:07.430Z,22.11
2023-03-03T08:45:09.297Z,21.96
2023-03-03T08:46:11.890Z,22.04
2023-03-03T08:47:13.686Z,21.81
2023-03-03T08:48:16.402Z,22.36
2023-03-03T08:49:18.442Z,22.07
2023-03-03T08:50:20.509Z,22.10
2023-03-03T08:51:22.290Z,22.28
2023-03-03T08:52:24.066Z,22.36
2023-03-03T08:53:26.061Z,21.99
2023-03-03T08:54:27.879Z,21.97
2023-03-03T08:55:30.241Z,22.01
2023-03-03T08:56:32.130Z,21.93
2023-03-03T08:57:34.101Z,22.13
2023-03-03T08:58:36.714Z,22.33
2023-03-03T08:59:39.179Z,21.80
2023-03-03T09:00:41.956Z,22.05
2023-03-03T09:01:44.904Z,21.89
2023-03-03T09:02:47.091Z,22.09
2023-03-03T09:03:49.057Z,21.90
2023-03-03T09:04:50.848Z,21.80
2023-03-03T09:05:52.795Z,21.89
2023-03-03T09:06:54.630Z,22.09
2023-03-03T09:07:56.664Z,22.15
2023-03-03T09:08:58.782Z,21.91
2023-03-03T09:10:00.696Z,21.92
2023-03-03T09:11:03.731Z,21.74
2023-03-03T09:12:22.786Z,21.91
2023-03-03T09:13:24.641Z,22.02
2023-03-03T09:14:29.244Z,22.03
2023-03-03T09:15:36.386Z,21.85
2023-03-03T09:16:50.103Z,21.68
2023-03-03T09:17:53.405Z,21.95
2023-03-03T09:18:55.291Z,22.02
2023-03-03T09:20:02.964Z,21.72
2023-03-03T09:21:34.380Z,21.64
2023-03-03T09:22:38.043Z,21.70
2023-03-03T09:23:42.935Z,21.72
2023-03-03T09:24:47.379Z,21.62
2023-03-03T09:25:49.820Z,21.65
2023-03-03T09:26:53.248Z,21.69
2023-03-03T09:27:55.533Z,21.99
2023-03-03T09:29:19.084Z,21.97
2023-03-03T09:30:26.755Z,21.33
2023-03-03T09:31:38.998Z,21.91
2023-03-03T09:32:43.329Z,21.45
2023-03-03T09:33:47.068Z,21.54
2023-03-03T09:34:49.006Z,21.64
2023-03-03T09:35:53.301Z,21.68
2023-03-03T09:36:56.460Z,21.78
2023-03-03T09:37:58.242Z,21.57
2023-03-03T09:39:00.423Z,21.54
2023-03-03T09:40:32.628Z,21.73
2023-03-03T09:42:00.139Z,21.41
2023-03-03T09:43:26.077Z,21.92
2023-03-03T09:44:51.206Z,21.79
2023-03-03T09:46:08.401Z,21.38
2023-03-03T09:47:22.613Z,21.68
2023-03-03T09:49:01.957Z,21.89
2023-03-03T09:50:22.606Z,21.73
2023-03-03T09:51:36.292Z,21.70
2023-03-03T09:52:59.935Z,21.47
2023-03-03T09:54:12.897Z,21.82
2023-03-03T09:55:53.618Z,21.57
2023-03-03T09:57:10.667Z,21.63
2023-03-03T09:58:49.805Z,21.31
2023-03-03T10:00:20.556Z,21.27
2023-03-03T10:01:27.989Z,21.57
2023-03-03T10:03:19.450Z,21.48
2023-03-03T10:04:53.428Z,21.39
2023-03-03T10:06:04.431Z,21.34
2023-03-03T10:07:30.470Z,21.31
2023-03-03T10:08:46.688Z,21.52
2023-03-03T10:10:07.186Z,21.45
2023-03-03T10:11:26.559Z,21.57
2023-03-03T10:12:43.522Z,21.92
2023-03-03T10:14:05.005Z,21.72
2023-03-03T10:15:22.171Z,21.78
2023-03-03T10:16:40.675Z,21.52
2023-03-03T10:17:53.044Z,21.86
2023-03-03T10:19:09.965Z,22.02
2023-03-03T10:20:23.573Z,22.05
2023-03-03T10:21:39.918Z,21.93
2023-03-03T10:22:53.746Z,22.07
2023-03-03T10:23:58.467Z,22.04
2023-03-03T10:25:22.198Z,22.08
2023-03-03T10:26:43.783Z,21.82
2023-03-03T10:28:07.812Z,21.64
2023-03-03T10:29:22.183Z,21.85
2023-03-03T10:31:18.672Z,22.04
2023-03-03T10:32:31.428Z,21.69
2023-03-03T10:33:42.492Z,21.98
2023-03-03T10:35:03.221Z,22.02
2023-03-03T10:36:34.743Z,22.20
2023-03-03T10:37:58.889Z,21.56
2023-03-03T10:39:33.869Z,21.85
2023-03-03T10:40:47.265Z,22.03
2023-03-03T10:42:07.897Z,21.77
2023-03-03T10:43:46.308Z,21.65
2023-03-03T10:45:09.737Z,21.99
2023-03-03T10:46:29.508Z,22.00
2023-03-03T10:47:49.810Z,21.63
2023-03-03T10:49:02.807Z,21.96
2023-03-03T10:50:22.957Z,22.11
2023-03-03T10:51:43.610Z,21.62
2023-03-03T10:53:13.991Z,21.63
2023-03-03T10:54:30.573Z,21.63
2023-03-03T10:55:39.358Z,21.84
2023-03-03T10:56:56.162Z,21.96
2023-03-03T10:58:15.125Z,21.38
2023-03-03T10:59:36.648Z,21.46
2023-03-03T11:00:44.582Z,21.36
2023-03-03T11:02:18.655Z,21.22
2023-03-03T11:03:41.796Z,21.24
2023-03-03T11:05:17.730Z,20.91
2023-03-03T11:06:59.797Z,21.28
2023-03-03T11:08:15.911Z,20.99
2023-03-03T11:10:03.755Z,21.41
2023-03-03T11:11:08.460Z,20.99
2023-03-03T11:12:47.308Z,21.25
2023-03-03T11:14:21.679Z,20.99
2023-03-03T11:15:36.589Z,21.51
2023-03-03T11:17:02.972Z,21.23
2023-03-03T11:18:26.532Z,21.49
2023-03-03T11:19:46.795Z,21.18
2023-03-03T11:20:55.912Z,21.30
2023-03-03T11:22:07.734Z,21.26
2023-03-03T11:23:33.748Z,20.97
2023-03-03T11:24:50.554Z,20.74
2023-03-03T11:25:59.957Z,21.25
2023-03-03T11:27:25.075Z,21.34
2023-03-03T11:28:44.913Z,21.05
2023-03-03T11:30:08.214Z,21.20
2023-03-03T11:31:22.484Z,21.07
2023-03-03T11:32:40.207Z,21.36
2023-03-03T11:34:03.372Z,20.91
2023-03-03T11:35:17.068Z,20.87
2023-03-03T11:36:26.662Z,21.08
2023-03-03T11:37:44.041Z,21.12
2023-03-03T11:38:56.787Z,21.14
2023-03-03T11:40:03.606Z,21.22
2023-03-03T11:41:44.136Z,20.92
2023-03-03T11:43:01.540Z,21.29
2023-03-03T11:44:25.643Z,20.90
2023-03-03T11:45:40.612Z,21.15
2023-03-03T11:46:51.900Z,21.12
2023-03-03T11:48:01.181Z,21.20
2023-03-03T11:49:15.610Z,20.97
2023-03-03T11:50:31.427Z,20.99
2023-03-03T11:51:56.229Z,21.11
2023-03-03T11:53:16.700Z,20.77
2023-03-03T11:54:30.920Z,20.70
2023-03-03T11:55:45.954Z,20.98
2023-03-03T11:56:48.620Z,21.18
2023-03-03T11:58:09.587Z,20.93
2023-03-03T11:59:30.312Z,20.75
2023-03-03T12:01:11.467Z,20.44
2023-03-03T12:02:30.518Z,20.65
2023-03-03T12:03:37.653Z,20.52
2023-03-03T12:04:48.297Z,20.86
2023-03-03T12:05:57.555Z,20.61
2023-03-03T12:07:38.284Z,20.48
2023-03-03T12:09:03.425Z,20.92
2023-03-03T12:10:14.830Z,20.41
2023-03-03T12:11:37.944Z,20.50
2023-03-03T12:12:43.199Z,20.80
2023-03-03T12:13:51.963Z,20.26
2023-03-03T12:15:11.268Z,20.82
2023-03-03T12:16:22.223Z,20.53
2023-03-03T12:17:44.274Z,20.34
2023-03-03T12:19:04.557Z,20.25
2023-03-03T12:20:43.592Z,20.31
2023-03-03T12:22:04.765Z,20.72
2023-03-03T12:23:25.652Z,20.61
2023-03-03T12:24:37.397Z,20.82
2023-03-03T12:25:43.746Z,20.37
2023-03-03T12:27:22.965Z,20.77
2023-03-03T12:28:30.999Z,20.33
2023-03-03T12:29:40.927Z,20.28
2023-03-03T12:30:42.758Z,20.23
2023-03-03T12:32:03.366Z,20.35
2023-03-03T12:33:31.418Z,20.50
2023-03-03T12:34:44.229Z,20.39
2023-03-03T12:36:39.762Z,20.57
2023-03-03T12:38:00.085Z,20.28
2023-03-03T12:39:34.822Z,20.32
2023-03-03T12:40:48.251Z,20.24
2023-03-03T12:42:25.366Z,20.52
2023-03-03T12:43:51.912Z,20.08
2023-03-03T12:45:05.545Z,20.58
2023-03-03T12:46:12.355Z,20.14
2023-03-03T12:47:23.407Z,20.63
2023-03-03T12:48:44.731Z,20.65
2023-03-03T12:50:07.610Z,20.56
2023-03-03T12:51:10.158Z,20.46
2023-03-03T12:52:36.526Z,20.04
2023-03-03T12:54:05.971Z,20.17
2023-03-03T12:55:16.945Z,20.27
2023-03-03T12:56:40.437Z,20.31
2023-03-03T12:57:58.809Z,20.28
2023-03-03T12:59:11.592Z,20.36
2023-03-03T13:00:43.501Z,20.08
2023-03-03T13:02:01.488Z,20.21
2023-03-03T13:03:12.134Z,20.04
2023-03-03T13:04:23.777Z,20.53
2023-03-03T13:06:01.985Z,20.63
2023-03-03T13:07:46.108Z,20.42
2023-03-03T13:09:11.719Z,20.34
2023-03-03T13:10:24.259Z,20.32
2023-03-03T13:11:54.127Z,20.45
2023-03-03T13:13:01.925Z,20.31
2023-03-03T13:14:22.222Z,20.63
2023-03-03T13:15:32.495Z,20.42
2023-03-03T13:16:59.325Z,20.39
2023-03-03T13:18:17.108Z,20.33
2023-03-03T13:19:36.816Z,20.55
2023-03-03T13:20:49.200Z,20.50
2023-03-03T13:21:58.452Z,20.49
2023-03-03T13:23:07.458Z,20.36
2023-03-03T13:24:33.470Z,20.34
2023-03-03T13:26:01.775Z,20.34
2023-03-03T13:27:20.387Z,20.00
2023-03-03T13:28:26.245Z,20.47
2023-03-03T13:29:35.739Z,20.03
2023-03-03T13:30:44.885Z,20.52
2023-03-03T13:31:50.739Z,20.17
2023-03-03T13:32:55.476Z,20.38
2023-03-03T13:33:59.488Z,20.23
2023-03-03T13:35:33.933Z,20.19
2023-03-03T13:36:52.562Z,20.10
2023-03-03T13:37:57.846Z,20.22
2023-03-03T13:39:06.775Z,20.19
2023-03-03T13:40:17.595Z,20.36
2023-03-03T13:41:25.178Z,20.12
2023-03-03T13:42:26.984Z,20.26
2023-03-03T13:44:02.157Z,20.60
2023-03-03T13:45:17.755Z,20.22
2023-03-03T13:46:34.882Z,20.11
2023-03-03T13:48:01.996Z,20.18
2023-03-03T13:49:06.694Z,20.20
2023-03-03T13:50:23.676Z,20.40
2023-03-03T13:51:48.882Z,19.85
2023-03-03T13:53:05.804Z,20.54
2023-03-03T13:54:13.102Z,20.13
2023-03-03T13:55:20.531Z,20.18
2023-03-03T13:56:38.168Z,20.39
2023-03-03T13:57:50.291Z,20.42
2023-03-03T13:59:11.666Z,20.42
2023-03-03T14:00:19.163Z,20.04
2023-03-03T14:01:44.380Z,20.21
2023-03-03T14:03:04.100Z,20.33
2023-03-03T14:04:30.930Z,20.41
2023-03-03T14:05:46.649Z,20.34
2023-03-03T14:06:57.661Z,20.26
2023-03-03T14:08:07.531Z,20.16
2023-03-03T14:09:15.667Z,20.49
2023-03-03T14:10:21.980Z,20.27
2023-03-03T14:11:35.712Z,20.71
2023-03-03T14:13:00.726Z,20.66
2023-03-03T14:14:27.102Z,20.19
2023-03-03T14:15:32.254Z,20.14
2023-03-03T14:16:52.010Z,19.95
2023-03-03T14:18:12.125Z,20.62
2023-03-03T14:19:28.738Z,20.20
2023-03-03T14:20:34.951Z,20.48
2023-03-03T14:21:43.339Z,20.29
2023-03-03T14:23:03.787Z,20.22
2023-03-03T14:24:22.559Z,20.02
2023-03-03T14:25:24.472Z,20.56
2023-03-03T14:26:26.418Z,20.47
2023-03-03T14:27:54.861Z,20.20
2023-03-03T14:29:35.701Z,20.29
2023-03-03T14:30:39.964Z,20.38
2023-03-03T14:31:43.686Z,20.38
2023-03-03T14:32:58.797Z,20.52
2023-03-03T14:34:14.518Z,20.42
2023-03-03T14:35:21.441Z,20.49
2023-03-03T14:36:31.493Z,20.20
2023-03-03T14:37:44.767Z,20.42
2023-03-03T14:38:48.786Z,20.21
2023-03-03T14:40:09.269Z,20.34
2023-03-03T14:41:11.225Z,20.42
2023-03-03T14:42:29.255Z,20.15
2023-03-03T14:43:37.816Z,20.32
2023-03-03T14:44:45.724Z,20.08
2023-03-03T14:45:47.602Z,20.25
2023-03-03T14:47:03.619Z,20.14
2023-03-03T14:48:14.265Z,20.46
2023-03-03T14:49:33.023Z,20.35
2023-03-03T14:50:38.135Z,19.99
2023-03-03T14:51:42.019Z,19.94
2023-03-03T14:52:43.980Z,20.22
2023-03-03T14:53:49.178Z,19.94
2023-03-03T14:54:54.750Z,20.19
2023-03-03T14:56:16.049Z,20.18
2023-03-03T14:57:56.588Z,19.98
2023-03-03T14:59:17.014Z,19.98
2023-03-03T15:00:22.242Z,20.05
2023-03-03T15:01:36.014Z,19.96
2023-03-03T15:02:42.655Z,20.31
2023-03-03T15:03:52.559Z,20.21